createdAt,value
2023-01-11T00:00:55.733Z,-10.30
2023-01-11T00:03:23.244Z,-10.26
2023-01-11T00:05:50.900Z,-10.32
2023-01-11T00:08:19.356Z,-10.25
2023-01-11T00:10:47.223Z,-10.35
2023-01-11T00:13:15.580Z,-10.23
2023-01-11T00:15:43.476Z,-10.19
2023-01-11T00:18:11.176Z,-10.22
2023-01-11T00:20:39.827Z,-10.14
2023-01-11T00:23:07.685Z,-10.12
2023-01-11T00:25:35.621Z,-10.07
2023-01-11T00:28:03.363Z,-10.18
2023-01-11T00:30:31.114Z,-10.13
2023-01-11T00:33:00.883Z,-10.02
2023-01-11T00:35:29.813Z,-10.06
2023-01-11T00:37:57.635Z,-10.07
2023-01-11T00:40:29.426Z,-10.14
2023-01-11T00:43:15.557Z,-10.06
2023-01-11T00:46:01.688Z,-10.01
2023-01-11T00:48:29.580Z,-10.06
2023-01-11T00:50:57.400Z,-10.14
2023-01-11T00:53:25.043Z,-10.08
2023-01-11T00:55:52.852Z,-10.03
2023-01-11T00:58:20.490Z,-10.04
2023-01-11T01:00:48.124Z,-9.99
2023-01-11T01:03:16.041Z,-9.96
2023-01-11T01:05:43.837Z,-9.99
2023-01-11T01:08:13.867Z,-9.98
2023-01-11T01:10:41.439Z,-9.94
2023-01-11T01:13:29.421Z,-9.93
2023-01-11T01:15:59.016Z,-10.01
2023-01-11T01:18:26.705Z,-10.00
2023-01-11T01:20:54.382Z,-9.97
2023-01-11T01:23:22.443Z,-9.95
2023-01-11T01:25:51.114Z,-9.99
2023-01-11T01:28:22.199Z,-9.95
2023-01-11T01:30:51.520Z,-9.92
2023-01-11T01:33:19.462Z,-9.90
2023-01-11T01:35:47.328Z,-9.97
2023-01-11T01:38:15.133Z,-10.08
2023-01-11T01:40:43.763Z,-10.09
2023-01-11T01:43:12.159Z,-9.92
2023-01-11T01:45:41.563Z,-10.08
2023-01-11T01:48:11.075Z,-10.00
2023-01-11T01:50:49.049Z,-9.94
2023-01-11T01:53:22.125Z,-10.06
2023-01-11T01:55:56.227Z,-10.02
2023-01-11T01:58:39.823Z,-9.91
2023-01-11T02:01:25.832Z,-9.90
2023-01-11T02:03:53.381Z,-9.97
2023-01-11T02:06:24.006Z,-9.95
2023-01-11T02:08:58.233Z,-9.96
2023-01-11T02:11:31.635Z,-9.92
2023-01-11T02:14:07.365Z,-9.95
2023-01-11T02:16:35.379Z,-9.91
2023-01-11T02:19:03.293Z,-9.91
2023-01-11T02:21:45.077Z,-9.90
2023-01-11T02:24:29.663Z,-9.92
2023-01-11T02:27:09.362Z,-9.87
2023-01-11T02:29:58.732Z,-10.05
2023-01-11T02:32:48.052Z,-9.96
2023-01-11T02:35:34.047Z,-9.95
2023-01-11T02:38:27.031Z,-9.92
2023-01-11T02:40:59.494Z,-10.00
2023-01-11T02:43:52.287Z,-10.03
2023-01-11T02:46:44.593Z,-10.00
2023-01-11T02:49:34.508Z,-9.94
2023-01-11T02:52:07.459Z,-9.94
2023-01-11T02:54:36.414Z,-9.98
2023-01-11T02:57:03.949Z,-9.91
2023-01-11T02:59:32.720Z,-10.00
2023-01-11T03:02:01.017Z,-9.99
2023-01-11T03:04:36.601Z,-9.89
2023-01-11T03:07:07.347Z,-9.94
2023-01-11T03:10:13.778Z,-9.91
2023-01-11T03:13:18.844Z,-9.94
2023-01-11T03:15:50.934Z,-9.90
2023-01-11T03:18:30.011Z,-9.91
2023-01-11T03:21:06.008Z,-9.95
2023-01-11T03:23:48.330Z,-9.91
2023-01-11T03:26:30.010Z,-9.90
2023-01-11T03:29:06.531Z,-9.89
2023-01-11T03:31:39.181Z,-9.82
2023-01-11T03:34:18.695Z,-9.91
2023-01-11T03:36:57.999Z,-9.84
2023-01-11T03:39:53.104Z,-9.88
2023-01-11T03:42:21.447Z,-9.94
2023-01-11T03:44:53.886Z,-9.85
2023-01-11T03:47:22.994Z,-9.82
2023-01-11T03:49:58.731Z,-9.87
2023-01-11T03:52:29.691Z,-9.86
2023-01-11T03:54:57.228Z,-9.85
2023-01-11T03:57:30.022Z,-9.76
2023-01-11T03:59:57.737Z,-9.73
2023-01-11T04:02:26.352Z,-9.75
2023-01-11T04:04:54.045Z,-9.68
2023-01-11T04:07:21.579Z,-9.78
2023-01-11T04:09:49.217Z,-9.74
2023-01-11T04:12:16.920Z,-9.68
2023-01-11T04:14:44.956Z,-9.79
2023-01-11T04:17:12.513Z,-9.72
2023-01-11T04:19:40.835Z,-9.75
2023-01-11T04:22:11.507Z,-9.71
2023-01-11T04:24:39.106Z,-9.58
2023-01-11T04:27:06.718Z,-9.59
2023-01-11T04:29:34.283Z,-9.64
2023-01-11T04:32:01.777Z,-9.64
2023-01-11T04:34:29.665Z,-9.60
2023-01-11T04:36:57.308Z,-9.55
2023-01-11T04:39:24.886Z,-9.62
2023-01-11T04:42:11.218Z,-9.57
2023-01-11T04:44:41.159Z,-9.58
2023-01-11T04:47:08.895Z,-9.55
2023-01-11T04:49:36.693Z,-9.63
2023-01-11T04:52:05.627Z,-9.56
2023-01-11T04:54:33.952Z,-9.57
2023-01-11T04:57:01.612Z,-9.60
2023-01-11T04:59:29.155Z,-9.62
2023-01-11T05:01:56.670Z,-9.57
2023-01-11T05:04:24.507Z,-9.62
2023-01-11T05:06:54.329Z,-9.64
2023-01-11T05:09:22.368Z,-9.59
2023-01-11T05:11:51.489Z,-9.62
2023-01-11T05:14:19.070Z,-9.54
2023-01-11T05:16:46.661Z,-9.51
2023-01-11T05:19:14.421Z,-9.45
2023-01-11T05:21:42.454Z,-9.55
2023-01-11T05:24:14.755Z,-9.66
2023-01-11T05:26:44.141Z,-9.58
2023-01-11T05:29:13.336Z,-9.45
2023-01-11T09:48:36.861Z,-4.09
2023-01-11T09:51:05.272Z,-3.97
2023-01-11T09:53:38.555Z,-4.06
2023-01-11T09:56:11.019Z,-3.98
2023-01-11T09:58:57.093Z,-3.93
2023-01-11T10:01:45.664Z,-3.95
2023-01-11T10:04:24.120Z,-3.88
2023-01-11T10:07:03.836Z,-3.88
2023-01-11T10:18:32.462Z,-3.87
2023-01-11T10:19:24.585Z,-3.86
2023-01-11T10:21:58.423Z,-3.76
2023-01-11T10:24:30.640Z,-3.63
2023-01-11T10:26:59.137Z,-3.59
2023-01-11T10:29:52.931Z,-3.63
2023-01-11T10:32:53.524Z,-3.49
2023-01-11T10:36:06.182Z,-3.36
2023-01-11T10:38:47.492Z,-3.32
2023-01-11T10:41:43.148Z,-3.30
2023-01-11T10:44:19.548Z,-3.36
2023-01-11T10:46:50.204Z,-3.25
2023-01-11T10:49:45.924Z,-3.16
2023-01-11T10:52:35.308Z,-3.09
2023-01-11T10:55:13.183Z,-3.12
2023-01-11T10:58:01.733Z,-3.04
2023-01-11T11:00:36.413Z,-2.99
2023-01-11T11:03:49.180Z,-2.91
2023-01-11T11:06:34.991Z,-2.83
2023-01-11T11:09:09.569Z,-2.82
2023-01-11T11:12:08.240Z,-2.74
2023-01-11T11:14:47.808Z,-2.83
2023-01-11T11:17:18.623Z,-2.80
2023-01-11T11:19:46.406Z,-2.72
2023-01-11T11:22:14.146Z,-2.69
2023-01-11T11:24:44.644Z,-2.65
2023-01-11T11:27:42.166Z,-2.74
2023-01-11T11:30:11.591Z,-3.00
2023-01-11T11:32:43.678Z,-2.93
2023-01-11T11:36:02.226Z,-2.81
2023-01-11T11:42:43.602Z,-2.76
2023-01-11T11:45:11.163Z,-2.71
2023-01-11T11:47:39.023Z,-2.64
2023-01-11T11:50:45.209Z,-2.46
2023-01-11T11:53:22.506Z,-2.37
2023-01-11T11:55:50.137Z,-2.28
2023-01-11T11:58:19.913Z,-2.28
2023-01-11T12:00:51.414Z,-2.08
2023-01-11T12:03:20.032Z,-2.02
2023-01-11T12:06:03.612Z,-1.80
2023-01-11T12:08:33.021Z,-1.71
2023-01-11T12:11:06.060Z,-1.63
2023-01-11T12:13:38.120Z,-1.66
2023-01-11T12:16:08.545Z,-1.51
2023-01-11T12:18:42.789Z,-1.46
2023-01-11T12:21:26.850Z,-1.54
2023-01-11T12:24:31.084Z,-1.44
2023-01-11T12:27:10.735Z,-1.37
2023-01-11T12:29:46.568Z,-1.27
2023-01-11T12:32:20.321Z,-1.31
2023-01-11T12:35:09.828Z,-1.12
2023-01-11T12:37:40.539Z,-1.02
2023-01-11T12:40:30.758Z,-1.13
2023-01-11T12:43:04.671Z,-0.93
2023-01-11T12:45:45.310Z,-0.88
2023-01-11T12:48:50.193Z,-1.00
2023-01-11T12:51:36.989Z,-0.77
2023-01-11T12:54:11.050Z,-0.85
2023-01-11T12:56:45.193Z,-0.84
2023-01-11T12:59:19.642Z,-1.08
2023-01-11T13:02:07.448Z,-1.03
2023-01-11T13:05:00.257Z,-1.10
2023-01-11T13:07:49.342Z,-0.99
2023-01-11T13:10:26.867Z,-1.16
2023-01-11T13:13:18.868Z,-1.09
2023-01-11T13:15:49.318Z,-1.30
2023-01-11T13:18:34.096Z,-1.45
2023-01-11T13:21:28.901Z,-1.79
2023-01-11T13:23:58.358Z,-1.94
2023-01-11T13:26:32.446Z,-2.27
2023-01-11T13:29:04.010Z,-2.55
2023-01-11T13:31:33.756Z,-2.44
2023-01-11T13:34:14.589Z,-2.72
2023-01-11T13:36:49.308Z,-2.74
2023-01-11T13:39:24.174Z,-2.92
2023-01-11T13:41:54.097Z,-3.09
2023-01-11T13:44:23.030Z,-3.11
2023-01-11T13:46:54.111Z,-3.10
2023-01-11T13:49:43.551Z,-3.31
2023-01-11T13:52:32.724Z,-3.31
2023-01-11T13:55:02.155Z,-3.50
2023-01-11T13:57:56.112Z,-3.45
2023-01-11T14:00:44.495Z,-3.58
2023-01-11T14:03:21.181Z,-3.67
2023-01-11T14:06:00.134Z,-3.70
2023-01-11T14:08:49.400Z,-3.68
2023-01-11T14:11:38.680Z,-3.72
2023-01-11T14:14:37.357Z,-3.74
2023-01-11T14:17:08.327Z,-3.84
2023-01-11T14:20:00.496Z,-3.80
2023-01-11T14:22:36.971Z,-3.93
2023-01-11T14:25:18.371Z,-3.93
2023-01-11T14:27:48.772Z,-4.00
2023-01-11T14:30:22.466Z,-4.08
2023-01-11T14:33:31.853Z,-4.08
2023-01-11T14:36:11.964Z,-4.07
2023-01-11T14:38:45.788Z,-4.23
2023-01-11T14:41:40.986Z,-4.22
2023-01-11T14:44:11.629Z,-4.32
2023-01-11T14:46:42.172Z,-4.33
2023-01-11T14:49:37.977Z,-4.39
2023-01-11T14:52:14.050Z,-4.46
2023-01-11T14:54:44.980Z,-4.52
2023-01-11T14:57:31.393Z,-4.50
2023-01-11T14:59:59.288Z,-4.60
2023-01-11T15:02:28.631Z,-4.59
2023-01-11T15:04:56.539Z,-4.75
2023-01-11T15:07:29.759Z,-4.64
2023-01-11T15:09:58.536Z,-4.71
2023-01-11T15:12:45.936Z,-4.82
2023-01-11T15:15:13.648Z,-4.85
2023-01-11T15:17:59.763Z,-4.95
2023-01-11T15:20:27.386Z,-4.97
2023-01-11T15:22:56.938Z,-4.97
2023-01-11T15:25:26.365Z,-4.94
2023-01-11T15:27:54.242Z,-5.00
2023-01-11T15:30:31.082Z,-5.04
2023-01-11T15:33:17.213Z,-5.05
2023-01-11T15:35:56.987Z,-5.22
2023-01-11T15:38:38.116Z,-5.31
2023-01-11T15:41:24.402Z,-5.29
2023-01-11T15:44:24.772Z,-5.36
2023-01-11T15:47:15.551Z,-5.47
2023-01-11T15:50:17.933Z,-5.36
2023-01-11T15:53:07.467Z,-5.36
2023-01-11T15:55:54.499Z,-5.33
2023-01-11T15:58:57.464Z,-5.34
2023-01-11T16:01:26.700Z,-5.33
2023-01-11T16:04:22.067Z,-5.31
2023-01-11T16:06:54.433Z,-5.32
2023-01-11T16:09:52.502Z,-5.28
2023-01-11T16:12:57.568Z,-5.16
2023-01-11T16:15:41.788Z,-5.22
2023-01-11T16:18:13.649Z,-5.26
2023-01-11T16:20:43.232Z,-5.25
2023-01-11T16:23:18.053Z,-5.20
2023-01-11T16:25:46.800Z,-5.22
2023-01-11T16:28:16.649Z,-5.23
2023-01-11T16:30:46.652Z,-5.20
2023-01-11T16:33:26.662Z,-5.22
2023-01-11T16:36:10.067Z,-5.25
2023-01-11T16:38:44.610Z,-5.15
2023-01-11T16:41:14.220Z,-5.19
2023-01-11T16:43:59.768Z,-5.20
2023-01-11T16:46:47.416Z,-5.20
2023-01-11T16:49:18.459Z,-5.18
2023-01-11T16:51:46.826Z,-5.15
2023-01-11T16:54:29.030Z,-5.11
2023-01-11T16:56:56.803Z,-5.10
2023-01-11T16:59:29.354Z,-5.20
2023-01-11T17:01:59.324Z,-5.17
2023-01-11T17:04:33.987Z,-5.04
2023-01-11T17:07:21.117Z,-5.18
2023-01-11T17:09:52.250Z,-5.08
2023-01-11T17:12:24.084Z,-5.06
2023-01-11T17:15:31.633Z,-5.01
2023-01-11T17:18:03.346Z,-4.97
2023-01-11T17:20:31.836Z,-4.96
2023-01-11T17:22:59.390Z,-4.96
2023-01-11T17:25:41.083Z,-4.94
2023-01-11T17:28:17.814Z,-4.90
2023-01-11T17:30:46.122Z,-4.89
2023-01-11T17:33:30.353Z,-4.92
2023-01-11T17:35:58.084Z,-4.86
2023-01-11T17:38:26.332Z,-4.81
2023-01-11T17:40:56.767Z,-4.82
2023-01-11T17:43:46.485Z,-4.78
2023-01-11T17:46:23.347Z,-4.81
2023-01-11T17:48:56.023Z,-4.82
2023-01-11T17:51:31.675Z,-4.81
2023-01-11T17:53:59.546Z,-4.78
2023-01-11T17:56:33.071Z,-4.69
2023-01-11T17:59:25.824Z,-4.68
2023-01-11T18:01:57.958Z,-4.64
2023-01-11T18:04:26.556Z,-4.65
2023-01-11T18:06:55.635Z,-4.52
2023-01-11T18:09:34.399Z,-4.52
2023-01-11T18:12:05.211Z,-4.50
2023-01-11T18:14:38.566Z,-4.57
2023-01-11T18:17:27.177Z,-4.39
2023-01-11T18:19:55.186Z,-4.46
2023-01-11T18:22:28.019Z,-4.51
2023-01-11T18:24:56.899Z,-4.37
2023-01-11T18:27:28.559Z,-4.29
2023-01-11T18:29:57.605Z,-4.33
2023-01-11T18:32:25.344Z,-4.29
2023-01-11T18:34:54.139Z,-4.33
2023-01-11T18:37:21.980Z,-4.22
2023-01-11T18:39:50.850Z,-4.16
2023-01-11T18:42:20.483Z,-4.17
2023-01-11T18:44:49.554Z,-4.23
2023-01-11T18:47:25.345Z,-4.09
2023-01-11T18:49:53.539Z,-4.02
2023-01-11T18:52:24.741Z,-4.02
2023-01-11T18:54:52.446Z,-4.06
2023-01-11T18:57:20.568Z,-4.08
2023-01-11T18:59:48.472Z,-4.00
2023-01-11T19:02:25.142Z,-3.98
2023-01-11T19:04:54.405Z,-3.94
2023-01-11T19:07:23.185Z,-3.96
2023-01-11T19:09:51.430Z,-3.97
2023-01-11T19:12:19.906Z,-3.93
2023-01-11T19:14:47.685Z,-3.97
2023-01-11T19:17:15.531Z,-3.91
2023-01-11T19:19:43.501Z,-3.84
2023-01-11T19:22:11.722Z,-3.92
2023-01-11T19:24:39.963Z,-3.94
2023-01-11T19:27:07.667Z,-3.87
2023-01-11T19:29:36.431Z,-3.84
2023-01-11T19:32:04.152Z,-3.91
2023-01-11T19:34:35.408Z,-3.80
2023-01-11T19:37:03.091Z,-3.76
2023-01-11T19:39:33.779Z,-3.81
2023-01-11T19:42:03.119Z,-3.73
2023-01-11T19:44:31.702Z,-3.70
2023-01-11T19:47:14.944Z,-3.77
2023-01-11T19:49:42.727Z,-3.72
2023-01-11T19:52:14.233Z,-3.72
2023-01-11T19:54:42.553Z,-3.61
2023-01-11T19:57:11.621Z,-3.64
2023-01-11T19:59:39.309Z,-3.68
2023-01-11T20:02:07.297Z,-3.55
2023-01-11T20:04:35.843Z,-3.53
2023-01-11T20:07:03.895Z,-3.53
2023-01-11T20:09:37.525Z,-3.57
2023-01-11T20:12:06.463Z,-3.52
2023-01-11T20:14:34.346Z,-3.56
2023-01-11T20:17:02.406Z,-3.53
2023-01-11T20:19:30.172Z,-3.57
2023-01-11T20:21:57.872Z,-3.63
2023-01-11T20:24:31.221Z,-3.66
2023-01-11T20:27:00.187Z,-3.74
2023-01-11T20:29:27.923Z,-3.69
2023-01-11T20:31:58.213Z,-3.62
2023-01-11T20:34:31.513Z,-3.70
2023-01-11T20:36:59.108Z,-3.70
2023-01-11T20:39:29.467Z,-3.62
2023-01-11T20:41:57.437Z,-3.62
2023-01-11T20:44:28.138Z,-3.67
2023-01-11T20:46:56.362Z,-3.67
2023-01-11T20:49:25.694Z,-3.67
2023-01-11T20:51:53.415Z,-3.72
2023-01-11T20:54:21.214Z,-3.62
2023-01-11T20:56:49.347Z,-3.74
2023-01-11T20:59:19.768Z,-3.63
2023-01-11T21:01:48.729Z,-3.58
2023-01-11T21:04:16.932Z,-3.53
2023-01-11T21:06:45.965Z,-3.56
2023-01-11T21:09:15.073Z,-3.57
2023-01-11T21:11:42.910Z,-3.48
2023-01-11T21:14:12.297Z,-3.57
2023-01-11T21:16:41.187Z,-3.56
2023-01-11T21:19:11.872Z,-3.52
2023-01-11T21:21:39.458Z,-3.52
2023-01-11T21:24:07.761Z,-3.61
2023-01-11T21:26:35.988Z,-3.60
2023-01-11T21:29:04.543Z,-3.54
2023-01-11T21:31:34.375Z,-3.65
2023-01-11T21:34:05.964Z,-3.57
2023-01-11T21:36:34.545Z,-3.60
2023-01-11T21:39:02.840Z,-3.49
2023-01-11T21:41:51.823Z,-3.58
2023-01-11T21:44:20.405Z,-3.62
2023-01-11T21:46:48.198Z,-3.54
2023-01-11T21:49:17.941Z,-3.54
2023-01-11T21:51:45.823Z,-3.58
2023-01-11T21:54:14.526Z,-3.53
2023-01-11T21:56:43.483Z,-3.60
2023-01-11T21:59:11.155Z,-3.70
2023-01-11T22:01:39.453Z,-3.69
2023-01-11T22:04:11.853Z,-3.68
2023-01-11T22:20:40.901Z,-3.80
2023-01-11T22:23:08.579Z,-3.90
2023-01-11T22:25:36.653Z,-3.90
2023-01-11T22:28:04.556Z,-3.96
2023-01-11T22:31:03.985Z,-3.89
2023-01-11T22:33:31.918Z,-4.07
2023-01-11T22:35:59.462Z,-4.05
2023-01-11T22:38:27.291Z,-4.19
2023-01-11T22:40:54.815Z,-4.11
2023-01-11T22:43:22.496Z,-4.05
2023-01-11T22:46:12.945Z,-4.10
2023-01-11T22:48:40.699Z,-4.09
2023-01-11T22:51:08.941Z,-3.98
2023-01-11T22:53:41.269Z,-4.16
2023-01-11T22:56:09.223Z,-4.04
2023-01-11T22:58:37.035Z,-4.13
2023-01-11T23:02:00.963Z,-3.99
2023-01-11T23:05:14.789Z,-4.12
2023-01-11T23:07:43.828Z,-4.28
2023-01-11T23:10:11.538Z,-4.16
2023-01-11T23:12:58.079Z,-4.16
2023-01-11T23:15:26.062Z,-4.24
2023-01-11T23:17:53.711Z,-4.20
2023-01-11T23:20:33.484Z,-4.20
2023-01-11T23:23:01.129Z,-4.18
2023-01-11T23:25:28.783Z,-4.35
2023-01-11T23:27:56.684Z,-4.35
2023-01-11T23:30:24.626Z,-4.24
2023-01-11T23:32:52.349Z,-4.29
2023-01-11T23:35:20.048Z,-4.21
2023-01-11T23:37:48.599Z,-4.30
2023-01-11T23:40:16.323Z,-4.22
2023-01-11T23:42:44.274Z,-4.24
2023-01-11T23:45:11.961Z,-4.25
2023-01-11T23:47:39.697Z,-4.20
2023-01-11T23:50:09.779Z,-4.27
2023-01-11T23:52:37.653Z,-4.21
2023-01-11T23:55:05.741Z,-4.18
2023-01-11T23:57:35.943Z,-4.27
